createdAt,value
2023-02-03T00:02:43.946Z,9.85
2023-02-03T00:07:46.109Z,9.69
2023-02-03T00:12:53.162Z,9.10
2023-02-03T00:17:55.249Z,9.43
2023-02-03T00:23:07.885Z,9.24
2023-02-03T00:28:10.229Z,9.64
2023-02-03T00:33:12.393Z,10.05
2023-02-03T00:38:14.517Z,10.30
2023-02-03T00:43:16.579Z,10.36
2023-02-03T00:48:18.675Z,10.41
2023-02-03T00:53:20.954Z,10.55
2023-02-03T00:58:23.469Z,10.05
2023-02-03T01:03:25.763Z,9.98
2023-02-03T01:08:27.835Z,9.85
2023-02-03T01:13:29.927Z,9.62
2023-02-03T01:18:32.029Z,9.62
2023-02-03T01:23:35.053Z,9.07
2023-02-03T01:28:37.986Z,8.76
2023-02-03T01:33:41.283Z,7.67
2023-02-03T01:38:43.554Z,7.72
2023-02-03T01:43:54.101Z,8.32
2023-02-03T01:49:19.171Z,8.84
2023-02-03T01:54:32.209Z,9.06
2023-02-03T01:59:35.604Z,8.96
2023-02-03T02:04:47.083Z,9.12
2023-02-03T02:09:50.069Z,9.03
2023-02-03T02:14:52.474Z,8.10
2023-02-03T02:20:22.096Z,8.16
2023-02-03T02:25:42.466Z,8.17
2023-02-03T02:31:14.478Z,8.45
2023-02-03T02:36:31.414Z,8.70
2023-02-03T02:41:51.167Z,9.17
2023-02-03T02:47:03.456Z,9.73
2023-02-03T02:52:08.717Z,9.41
2023-02-03T02:57:13.532Z,9.89
2023-02-03T03:02:15.799Z,10.16
2023-02-03T03:07:24.406Z,10.32
2023-02-03T03:12:34.838Z,9.27
2023-02-03T03:17:49.085Z,9.23
2023-02-03T03:22:59.730Z,9.23
2023-02-03T03:28:10.745Z,9.07
2023-02-03T03:33:13.101Z,8.98
2023-02-03T03:38:33.960Z,8.97
2023-02-03T03:43:42.733Z,9.30
2023-02-03T03:48:54.781Z,9.56
2023-02-03T03:54:01.092Z,9.74
2023-02-03T03:59:05.569Z,9.54
2023-02-03T04:04:11.592Z,9.87
2023-02-03T04:09:13.678Z,9.72
2023-02-03T04:14:15.831Z,9.70
2023-02-03T04:19:17.927Z,9.66
2023-02-03T04:24:20.052Z,9.72
2023-02-03T04:29:22.147Z,9.74
2023-02-03T04:34:24.287Z,9.88
2023-02-03T04:39:26.413Z,9.74
2023-02-03T04:44:28.533Z,9.90
2023-02-03T04:49:30.608Z,9.72
2023-02-03T04:54:32.757Z,9.56
2023-02-03T04:59:34.877Z,9.62
2023-02-03T05:04:37.045Z,9.31
2023-02-03T05:09:39.170Z,8.80
2023-02-03T05:14:41.271Z,8.97
2023-02-03T05:19:43.485Z,8.82
2023-02-03T05:24:45.746Z,8.93
2023-02-03T05:29:47.890Z,9.19
2023-02-03T05:34:49.968Z,9.08
2023-02-03T05:39:52.036Z,8.91
2023-02-03T05:44:54.093Z,8.52
2023-02-03T05:49:56.190Z,8.69
2023-02-03T05:54:58.313Z,8.72
2023-02-03T06:00:00.416Z,8.50
2023-02-03T06:05:02.515Z,8.62
2023-02-03T06:10:04.959Z,8.59
2023-02-03T06:15:07.390Z,8.70
2023-02-03T06:20:11.268Z,8.83
2023-02-03T06:25:14.713Z,8.84
2023-02-03T06:30:17.514Z,8.78
2023-02-03T06:35:19.656Z,8.73
2023-02-03T06:40:21.887Z,8.96
2023-02-03T06:45:25.206Z,9.04
2023-02-03T06:50:27.519Z,9.48
2023-02-03T06:55:29.972Z,9.60
2023-02-03T07:00:32.417Z,9.57
2023-02-03T07:05:36.382Z,9.80
2023-02-03T07:10:38.538Z,9.93
2023-02-03T07:15:41.287Z,9.93
2023-02-03T07:20:43.389Z,9.97
2023-02-03T07:25:45.756Z,9.95
2023-02-03T07:30:49.576Z,9.62
2023-02-03T07:35:55.298Z,9.13
2023-02-03T07:40:57.407Z,8.92
2023-02-03T07:46:00.067Z,9.32
2023-02-03T07:51:02.261Z,9.19
2023-02-03T07:56:05.954Z,9.28
2023-02-03T08:01:16.990Z,9.24
2023-02-03T08:06:19.220Z,9.02
2023-02-03T08:11:21.415Z,9.15
2023-02-03T08:16:23.662Z,8.95
2023-02-03T08:21:25.792Z,9.65
2023-02-03T08:26:27.904Z,9.61
2023-02-03T08:31:31.262Z,9.48
2023-02-03T08:36:33.516Z,9.73
2023-02-03T08:41:36.117Z,9.81
2023-02-03T08:46:43.879Z,9.50
2023-02-03T08:51:48.426Z,9.27
2023-02-03T08:56:51.319Z,9.29
2023-02-03T09:01:53.501Z,9.27
2023-02-03T09:06:56.061Z,10.00
2023-02-03T09:12:03.169Z,10.15
2023-02-03T09:17:07.820Z,10.33
2023-02-03T09:22:10.001Z,10.10
2023-02-03T09:27:13.611Z,10.03
2023-02-03T09:32:15.986Z,10.85
2023-02-03T09:37:18.315Z,11.03
2023-02-03T09:42:45.179Z,11.34
2023-02-03T09:47:54.305Z,12.05
2023-02-03T09:52:57.978Z,12.30
2023-02-03T09:58:12.711Z,12.05
2023-02-03T10:03:37.016Z,12.17
2023-02-03T10:09:22.115Z,12.40
2023-02-03T10:14:50.248Z,12.85
2023-02-03T10:20:13.349Z,12.76
2023-02-03T10:25:15.591Z,12.84
2023-02-03T10:30:25.940Z,12.94
2023-02-03T10:36:00.343Z,12.73
2023-02-03T10:41:03.696Z,13.49
2023-02-03T10:46:06.074Z,13.62
2023-02-03T10:51:20.110Z,13.83
2023-02-03T10:56:44.378Z,13.84
2023-02-03T11:01:49.715Z,13.91
2023-02-03T11:07:02.140Z,14.25
2023-02-03T11:12:16.822Z,14.37
2023-02-03T11:17:27.992Z,14.41
2023-02-03T11:22:40.704Z,14.32
2023-02-03T11:27:43.508Z,14.44
2023-02-03T11:32:48.276Z,14.40
2023-02-03T11:37:56.504Z,14.53
2023-02-03T11:42:58.741Z,14.57
2023-02-03T11:48:45.077Z,14.44
2023-02-03T11:54:13.074Z,14.73
2023-02-03T11:59:45.965Z,15.06
2023-02-03T12:04:51.035Z,15.43
2023-02-03T12:10:02.755Z,15.61
2023-02-03T12:15:51.108Z,15.44
2023-02-03T12:21:02.175Z,15.77
2023-02-03T12:26:46.004Z,15.62
2023-02-03T12:32:01.690Z,15.93
2023-02-03T12:37:17.736Z,16.06
2023-02-03T12:42:42.657Z,15.79
2023-02-03T12:48:01.063Z,15.29
2023-02-03T12:53:13.633Z,15.19
2023-02-03T12:58:37.079Z,15.09
2023-02-03T13:04:10.155Z,15.41
2023-02-03T13:09:44.852Z,15.54
2023-02-03T13:15:00.244Z,15.32
2023-02-03T13:20:16.205Z,15.41
2023-02-03T13:25:36.396Z,15.93
2023-02-03T13:30:56.459Z,16.10
2023-02-03T13:36:06.759Z,16.09
2023-02-03T13:41:38.975Z,15.93
2023-02-03T13:46:41.641Z,15.96
2023-02-03T13:51:46.550Z,16.30
2023-02-03T13:57:07.495Z,16.43
2023-02-03T14:02:27.544Z,16.17
2023-02-03T14:07:40.278Z,15.95
2023-02-03T14:12:51.487Z,16.01
2023-02-03T14:17:53.564Z,16.20
2023-02-03T14:23:12.571Z,16.08
2023-02-03T14:28:18.984Z,16.18
2023-02-03T14:33:26.045Z,16.36
2023-02-03T14:38:33.575Z,16.42
2023-02-03T14:43:52.363Z,16.60
2023-02-03T14:49:39.218Z,16.70
2023-02-03T14:55:19.763Z,16.99
2023-02-03T15:00:25.877Z,17.17
2023-02-03T15:05:29.659Z,17.60
2023-02-03T15:10:42.938Z,17.95
2023-02-03T15:15:45.988Z,18.02
2023-02-03T15:20:53.318Z,17.77
2023-02-03T15:26:14.007Z,16.92
2023-02-03T15:31:25.869Z,16.07
2023-02-03T15:36:39.860Z,15.44
2023-02-03T15:41:42.708Z,14.95
2023-02-03T15:46:52.219Z,15.05
2023-02-03T15:52:02.367Z,14.79
2023-02-03T15:57:11.127Z,14.23
2023-02-03T16:02:21.209Z,14.06
2023-02-03T16:07:25.249Z,13.78
2023-02-03T16:12:34.011Z,13.75
2023-02-03T16:17:39.560Z,13.61
2023-02-03T16:23:02.104Z,13.20
2023-02-03T16:28:31.036Z,13.24
2023-02-03T16:33:53.010Z,12.97
2023-02-03T16:39:14.310Z,12.74
2023-02-03T16:44:35.160Z,12.86
2023-02-03T16:49:56.042Z,12.44
2023-02-03T16:54:59.129Z,12.42
2023-02-03T17:00:01.297Z,12.28
2023-02-03T17:05:03.489Z,12.51
2023-02-03T17:10:05.985Z,12.37
2023-02-03T17:15:09.044Z,12.31
2023-02-03T17:20:11.475Z,12.15
2023-02-03T17:25:13.911Z,12.05
2023-02-03T17:30:16.692Z,12.05
2023-02-03T17:35:18.843Z,12.11
2023-02-03T17:56:42.324Z,11.08
2023-02-03T18:01:44.467Z,11.15
2023-02-03T18:06:46.845Z,11.47
2023-02-03T18:11:49.063Z,11.30
2023-02-03T18:16:51.263Z,11.02
2023-02-03T18:21:53.370Z,10.68
2023-02-03T18:26:56.183Z,10.65
2023-02-03T18:31:58.432Z,10.76
2023-02-03T18:37:00.605Z,10.80
2023-02-03T18:42:03.078Z,10.54
2023-02-03T18:47:08.778Z,10.54
2023-02-03T18:52:10.904Z,10.18
2023-02-03T18:57:16.085Z,9.92
2023-02-03T19:02:18.423Z,9.82
2023-02-03T19:07:20.663Z,9.87
2023-02-03T19:12:22.963Z,10.00
2023-02-03T19:17:25.255Z,9.64
2023-02-03T19:22:27.524Z,10.06
2023-02-03T19:27:29.622Z,9.94
2023-02-03T19:32:32.245Z,9.97
2023-02-03T19:37:34.452Z,9.88
2023-02-03T19:42:36.702Z,9.72
2023-02-03T19:47:38.882Z,9.59
2023-02-03T19:52:41.029Z,9.82
2023-02-03T19:57:43.228Z,9.79
2023-02-03T20:02:45.347Z,9.45
2023-02-03T20:07:47.843Z,9.15
2023-02-03T20:12:49.990Z,9.17
2023-02-03T20:17:52.164Z,9.00
2023-02-03T20:22:54.422Z,9.07
2023-02-03T20:27:58.502Z,9.06
2023-02-03T20:33:00.836Z,8.85
2023-02-03T20:38:02.978Z,9.02
2023-02-03T20:43:20.397Z,8.96
2023-02-03T20:48:25.794Z,8.96
2023-02-03T20:53:28.059Z,8.77
2023-02-03T20:58:34.839Z,9.01
2023-02-03T21:03:55.784Z,8.86
2023-02-03T21:09:20.008Z,8.50
2023-02-03T21:14:26.389Z,8.55
2023-02-03T21:19:33.911Z,8.77
2023-02-03T21:24:38.254Z,8.69
2023-02-03T21:29:41.307Z,8.60
2023-02-03T21:34:44.896Z,8.40
2023-02-03T21:39:48.434Z,7.63
2023-02-03T21:44:51.087Z,7.77
2023-02-03T21:49:53.450Z,7.84
2023-02-03T21:54:55.705Z,7.89
2023-02-03T21:59:58.052Z,8.03
2023-02-03T22:05:00.932Z,8.16
2023-02-03T22:10:03.077Z,7.93
2023-02-03T22:15:05.560Z,7.98
2023-02-03T22:20:08.246Z,8.12
2023-02-03T22:25:10.439Z,8.03
2023-02-03T22:30:16.612Z,7.93
2023-02-03T22:35:18.824Z,8.09
2023-02-03T22:40:22.189Z,7.94
2023-02-03T22:45:24.449Z,7.78
2023-02-03T22:50:35.570Z,7.77
2023-02-03T22:55:38.813Z,7.74
2023-02-03T23:00:41.181Z,7.69
2023-02-03T23:05:43.325Z,7.66
2023-02-03T23:10:45.470Z,7.79
2023-02-03T23:15:48.697Z,7.68
2023-02-03T23:20:50.945Z,7.60
2023-02-03T23:25:53.123Z,7.49
2023-02-03T23:30:56.412Z,7.37
2023-02-03T23:35:58.680Z,7.44
2023-02-03T23:41:00.889Z,6.99
2023-02-03T23:46:03.528Z,7.19
2023-02-03T23:51:06.136Z,6.89
2023-02-03T23:56:08.306Z,6.83
